createdAt,value
2023-02-26T00:04:56.181Z,2.6
2023-02-26T00:10:41.145Z,2.6
2023-02-26T00:16:28.492Z,2.6
2023-02-26T00:22:12.959Z,2.4
2023-02-26T00:27:57.099Z,2.7
2023-02-26T00:33:41.728Z,2.4
2023-02-26T00:39:32.668Z,2.1
2023-02-26T00:45:17.258Z,2.4
2023-02-26T00:51:04.144Z,2.4
2023-02-26T00:56:47.794Z,2.3
2023-02-26T01:02:31.871Z,2.5
2023-02-26T01:08:19.762Z,2.5
2023-02-26T01:14:04.051Z,2.3
2023-02-26T01:19:50.824Z,2.5
2023-02-26T01:25:39.412Z,2.4
2023-02-26T01:31:29.517Z,2.2
2023-02-26T01:37:19.228Z,2.6
2023-02-26T01:43:06.060Z,2.7
2023-02-26T01:48:53.260Z,2.2
2023-02-26T01:54:38.310Z,2.4
2023-02-26T02:00:23.053Z,2.5
2023-02-26T02:06:09.272Z,2.4
2023-02-26T02:12:01.723Z,3
2023-02-26T02:17:50.695Z,2.3
2023-02-26T02:23:39.301Z,2.4
2023-02-26T02:29:37.379Z,2.3
2023-02-26T02:35:23.527Z,2.4
2023-02-26T02:41:11.035Z,2.6
2023-02-26T02:46:57.839Z,2.7
2023-02-26T02:52:44.421Z,2.3
2023-02-26T02:58:31.581Z,2.5
2023-02-26T03:04:17.259Z,2.6
2023-02-26T03:10:01.134Z,2.3
2023-02-26T03:15:50.926Z,2.3
2023-02-26T03:21:37.455Z,2.6
2023-02-26T03:27:23.989Z,2.4
2023-02-26T03:33:11.717Z,2.6
2023-02-26T03:38:59.016Z,2.4
2023-02-26T03:44:45.650Z,2.7
2023-02-26T03:50:34.236Z,2.3
2023-02-26T03:56:24.017Z,2.4
2023-02-26T04:02:12.776Z,2.3
2023-02-26T04:07:58.445Z,2.3
2023-02-26T04:13:42.161Z,2.5
2023-02-26T04:19:26.067Z,2.5
2023-02-26T04:25:11.256Z,2.3
2023-02-26T04:30:55.805Z,2.3
2023-02-26T04:36:39.816Z,2.3
2023-02-26T04:42:23.759Z,2.3
2023-02-26T04:48:07.537Z,2.3
2023-02-26T04:53:51.270Z,2.1
2023-02-26T04:59:34.989Z,2.4
2023-02-26T05:05:18.842Z,2
2023-02-26T05:11:02.586Z,2.3
2023-02-26T05:16:47.448Z,2.1
2023-02-26T05:22:31.167Z,2.1
2023-02-26T05:28:14.960Z,2
2023-02-26T05:33:58.718Z,2.3
2023-02-26T05:39:42.893Z,2.1
2023-02-26T05:45:26.665Z,1.9
2023-02-26T05:51:10.417Z,2.2
2023-02-26T05:56:54.118Z,1.8
2023-02-26T06:02:38.959Z,2.1
2023-02-26T06:08:22.752Z,2.1
2023-02-26T06:14:06.488Z,2
2023-02-26T06:19:50.046Z,1.8
2023-02-26T06:25:33.738Z,1.7
2023-02-26T06:31:17.610Z,1.9
2023-02-26T06:37:01.749Z,1.7
2023-02-26T06:42:45.696Z,1.8
2023-02-26T06:48:29.665Z,1.7
2023-02-26T06:54:13.766Z,1.7
2023-02-26T06:59:57.671Z,1.7
2023-02-26T07:05:41.697Z,1.4
2023-02-26T07:11:25.889Z,1.5
2023-02-26T07:17:10.404Z,1.9
2023-02-26T07:22:54.325Z,2.2
2023-02-26T07:28:40.156Z,2.2
2023-02-26T07:34:23.925Z,2
2023-02-26T07:40:08.269Z,1.6
2023-02-26T07:45:52.339Z,1.6
2023-02-26T07:51:36.224Z,1.6
2023-02-26T07:57:20.378Z,1.6
2023-02-26T08:03:04.063Z,1.6
2023-02-26T08:08:47.850Z,1.3
2023-02-26T08:14:31.423Z,1.3
2023-02-26T08:20:15.898Z,1.4
2023-02-26T08:26:05.651Z,1.3
2023-02-26T08:31:49.947Z,1.2
2023-02-26T08:37:33.969Z,1.2
2023-02-26T08:43:17.666Z,1.4
2023-02-26T08:49:01.741Z,1.2
2023-02-26T08:54:45.442Z,1.2
2023-02-26T09:00:29.621Z,1.5
2023-02-26T09:06:13.470Z,1.1
2023-02-26T09:11:57.938Z,1
2023-02-26T09:17:41.795Z,1.3
2023-02-26T09:23:25.587Z,1.2
2023-02-26T09:29:09.433Z,1.4
2023-02-26T09:34:53.074Z,1
2023-02-26T09:40:39.515Z,0.9
2023-02-26T09:46:29.155Z,0.9
2023-02-26T09:52:18.349Z,0.9
2023-02-26T09:58:03.662Z,0.9
2023-02-26T10:03:55.485Z,1
2023-02-26T10:09:44.847Z,1.3
2023-02-26T10:15:30.418Z,1.1
2023-02-26T10:21:16.843Z,1
2023-02-26T10:27:04.630Z,1
2023-02-26T10:32:53.850Z,0.8
2023-02-26T10:38:37.767Z,1
2023-02-26T10:44:24.068Z,0.9
2023-02-26T10:50:11.228Z,1.1
2023-02-26T10:55:58.788Z,0.9
2023-02-26T11:01:42.696Z,1.4
2023-02-26T11:07:27.966Z,1
2023-02-26T11:13:14.296Z,0.8
2023-02-26T11:19:00.479Z,1.1
2023-02-26T11:24:46.571Z,0.8
2023-02-26T11:30:32.378Z,1.1
2023-02-26T11:36:17.261Z,1.1
2023-02-26T11:42:07.244Z,0.8
2023-02-26T11:47:55.104Z,0.8
2023-02-26T11:53:43.456Z,1
2023-02-26T11:59:28.007Z,0.9
2023-02-26T12:05:15.738Z,1.4
2023-02-26T12:11:07.077Z,0.9
2023-02-26T12:16:57.830Z,0.9
2023-02-26T12:22:49.742Z,0.8
2023-02-26T12:28:39.981Z,0.8
2023-02-26T12:34:36.937Z,0.7
2023-02-26T12:40:27.728Z,0.9
2023-02-26T12:46:18.070Z,0.7
2023-02-26T12:52:22.500Z,0.6
2023-02-26T12:58:26.531Z,0.6
2023-02-26T13:04:20.939Z,0.6
2023-02-26T13:10:07.139Z,0.8
2023-02-26T13:15:57.215Z,0.7
2023-02-26T13:21:44.972Z,0.7
2023-02-26T13:27:32.643Z,0.6
2023-02-26T13:33:19.039Z,0.7
2023-02-26T13:39:16.526Z,0.6
2023-02-26T13:45:06.331Z,0.8
2023-02-26T13:50:55.046Z,0.6
2023-02-26T13:56:50.471Z,0.7
2023-02-26T14:02:50.417Z,0.6
2023-02-26T14:08:45.525Z,0.5
2023-02-26T14:14:32.616Z,0.7
2023-02-26T14:20:28.580Z,0.6
2023-02-26T14:26:19.616Z,1
2023-02-26T14:32:24.067Z,0.5
2023-02-26T14:38:10.169Z,0.6
2023-02-26T14:43:58.732Z,0.6
2023-02-26T14:49:43.862Z,0.6
2023-02-26T14:55:41.778Z,0.4
2023-02-26T15:01:35.252Z,0.7
2023-02-26T15:07:42.702Z,0.5
2023-02-26T15:13:37.492Z,0.7
2023-02-26T15:19:27.851Z,0.7
2023-02-26T15:25:20.862Z,0.6
2023-02-26T15:31:06.450Z,0.5
2023-02-26T15:36:54.539Z,0.6
2023-02-26T15:42:39.059Z,0.7
2023-02-26T15:48:23.724Z,0.5
2023-02-26T15:54:07.897Z,0.5
2023-02-26T15:59:52.600Z,0.6
2023-02-26T16:05:37.099Z,0.6
2023-02-26T16:11:21.886Z,0.6
2023-02-26T16:17:15.561Z,0.6
2023-02-26T16:23:01.351Z,0.6
2023-02-26T16:28:45.997Z,0.7
2023-02-26T16:34:35.591Z,0.7
2023-02-26T16:40:25.289Z,0.8
2023-02-26T16:46:13.504Z,0.7
2023-02-26T16:51:58.518Z,0.8
2023-02-26T16:57:42.939Z,0.8
2023-02-26T17:03:28.190Z,0.7
2023-02-26T17:09:19.439Z,1
2023-02-26T17:15:04.491Z,0.9
2023-02-26T17:20:49.773Z,1.5
2023-02-26T17:26:33.886Z,1
2023-02-26T17:32:20.087Z,0.8
2023-02-26T17:38:04.185Z,1.2
2023-02-26T17:43:48.098Z,1.1
2023-02-26T17:49:31.803Z,1.5
2023-02-26T17:55:15.647Z,1.6
2023-02-26T18:00:59.674Z,1.7
2023-02-26T18:06:43.624Z,1.6
2023-02-26T18:12:27.560Z,4.2
2023-02-26T18:18:11.426Z,3.1
2023-02-26T18:23:57.732Z,6.5
2023-02-26T18:29:41.612Z,3.7
2023-02-26T18:35:28.431Z,3.2
2023-02-26T18:41:12.711Z,2.8
2023-02-26T18:46:56.482Z,2.8
2023-02-26T18:52:40.439Z,2.8
2023-02-26T18:58:24.087Z,2.6
2023-02-26T19:04:07.855Z,2.5
2023-02-26T19:09:51.863Z,2.5
2023-02-26T19:15:35.558Z,2.5
2023-02-26T19:21:19.366Z,2.3
2023-02-26T19:27:03.219Z,2.5
2023-02-26T19:32:47.287Z,2.1
2023-02-26T19:38:31.140Z,2.2
2023-02-26T19:44:14.786Z,2
2023-02-26T19:49:58.615Z,2.1
2023-02-26T19:55:42.279Z,2
2023-02-26T20:01:26.330Z,1.8
2023-02-26T20:07:10.860Z,1.9
2023-02-26T20:12:54.591Z,2.2
2023-02-26T20:18:39.228Z,1.8
2023-02-26T20:24:22.700Z,1.5
2023-02-26T20:30:07.060Z,2
2023-02-26T20:35:51.022Z,1.8
2023-02-26T20:41:34.691Z,1.7
2023-02-26T20:47:19.517Z,1.8
2023-02-26T20:53:05.361Z,1.6
2023-02-26T20:58:52.668Z,1.7
2023-02-26T21:04:36.471Z,1.5
2023-02-26T21:10:20.746Z,1.5
2023-02-26T21:16:04.565Z,1.6
2023-02-26T21:21:48.816Z,1.8
2023-02-26T21:27:32.532Z,1.7
2023-02-26T21:33:16.562Z,1.7
2023-02-26T21:39:00.447Z,1.6
2023-02-26T21:44:45.070Z,1.8
2023-02-26T21:50:32.320Z,1.6
2023-02-26T21:56:16.646Z,1.7
2023-02-26T22:02:00.637Z,1.7
2023-02-26T22:07:44.471Z,1.6
2023-02-26T22:13:28.123Z,1.6
2023-02-26T22:19:14.852Z,1.7
2023-02-26T22:24:58.556Z,1.5
2023-02-26T22:30:42.667Z,1.7
2023-02-26T22:36:27.487Z,1.5
2023-02-26T22:42:11.358Z,1.6
2023-02-26T22:47:57.130Z,1.5
2023-02-26T22:53:40.934Z,1.4
2023-02-26T22:59:24.922Z,1.5
2023-02-26T23:05:09.519Z,1.4
2023-02-26T23:10:54.789Z,1.3
2023-02-26T23:16:40.876Z,1.7
2023-02-26T23:22:24.691Z,1.5
2023-02-26T23:28:08.475Z,1.4
2023-02-26T23:33:52.443Z,1.6
2023-02-26T23:39:36.181Z,1.6
2023-02-26T23:45:20.123Z,1.7
2023-02-26T23:51:04.353Z,1.7
2023-02-26T23:56:49.368Z,1.8
